Back to Top

Language: 

My Weather Underground Personal Weather Station Historical Data with Graphs...

Delerius Weather Station Historical Data
Daily Summary for July 25, 2017 Units:  Metric    English   Both
« Previous Day
Next Day »
Daily Weekly Monthly Yearly Custom
  High: Low: Average:
Temperature: 22 °C 11.3 °C 16.5 °C
Dew Point: 14.5 °C 10 °C 12.4 °C
Humidity: 94 % 61 % 78 %
Wind Speed: 11.3 km/h 0 km/h 3.7 km/h
Wind Gust: 20.9 km/h - -
Wind:- - SSW
Pressure: 1018.2 hPa 1011.4 hPa -
Precipitation: 0 mm    
Historical Graphs
 
 
Tabular Data for July 25, 2017
Time Temperature Dew Point Pressure Wind Wind Speed Wind Gust Humidity Rainfall Rate (Hourly) solar Conditions
00:00 13 °C 10.9 °C 1017.8 hPa NNW 1.6 km/h 8 km/h 87 % 0 mm 0 W/m2
00:05 12.8 °C 10.7 °C 1017.8 hPa Calm   3.2 km/h 87 % 0 mm 0 W/m2
00:10 12.7 °C 10.6 °C 1017.8 hPa Calm     87 % 0 mm 0 W/m2
00:15 12.5 °C 10.6 °C 1017.8 hPa Calm   3.2 km/h 88 % 0 mm 0 W/m2
00:20 12.4 °C 10.4 °C 1018.2 hPa Calm   3.2 km/h 88 % 0 mm 0 W/m2
00:25 12.3 °C 10.6 °C 1018.2 hPa Calm   1.6 km/h 89 % 0 mm 0 W/m2
00:30 12.2 °C 10.4 °C 1018.2 hPa Calm     89 % 0 mm 0 W/m2
00:35 12.1 °C 10.5 °C 1018.2 hPa Calm     90 % 0 mm 0 W/m2
00:38 12 °C 10.4 °C 1017.8 hPa Calm     90 % 0 mm 0 W/m2
00:43 11.9 °C 10.3 °C 1017.8 hPa Calm     90 % 0 mm 0 W/m2
00:48 11.8 °C 10.2 °C 1017.8 hPa Calm     90 % 0 mm 0 W/m2
00:53 11.6 °C 10 °C 1017.8 hPa Calm   1.6 km/h 90 % 0 mm 0 W/m2
00:58 11.6 °C 10.2 °C 1017.8 hPa Calm   6.4 km/h 91 % 0 mm 0 W/m2
01:03 11.5 °C 10.1 °C 1017.8 hPa Calm   6.4 km/h 91 % 0 mm 0 W/m2
01:08 11.5 °C 10.1 °C 1017.8 hPa Calm     91 % 0 mm 0 W/m2
01:13 11.4 °C 10.2 °C 1017.8 hPa Calm   1.6 km/h 92 % 0 mm 0 W/m2
01:18 11.4 °C 10.2 °C 1018.2 hPa NNW 1.6 km/h 9.7 km/h 92 % 0 mm 0 W/m2
01:23 11.6 °C 10.3 °C 1018.2 hPa NNW 1.6 km/h 9.7 km/h 92 % 0 mm 0 W/m2
01:28 11.6 °C 10.3 °C 1018.2 hPa NNW 1.6 km/h 8 km/h 92 % 0 mm 0 W/m2
01:33 11.4 °C 10.2 °C 1017.8 hPa Calm   6.4 km/h 92 % 0 mm 0 W/m2
01:38 11.3 °C 10.1 °C 1017.8 hPa Calm     92 % 0 mm 0 W/m2
01:43 11.3 °C 10.1 °C 1018.2 hPa Calm     92 % 0 mm 0 W/m2
01:48 11.3 °C 10.1 °C 1018.2 hPa Calm   3.2 km/h 92 % 0 mm 0 W/m2
01:53 11.3 °C 10.1 °C 1018.2 hPa WNW 1.6 km/h 6.4 km/h 92 % 0 mm 0 W/m2
01:58 11.4 °C 10.3 °C 1018.2 hPa NW 3.2 km/h 9.7 km/h 93 % 0 mm 0 W/m2
02:03 11.6 °C 10.5 °C 1018.2 hPa NW 4.8 km/h 11.3 km/h 93 % 0 mm 0 W/m2
02:08 11.7 °C 10.8 °C 1017.8 hPa NW 1.6 km/h 11.3 km/h 94 % 0 mm 0 W/m2
02:13 11.8 °C 10.7 °C 1017.8 hPa Calm   6.4 km/h 93 % 0 mm 0 W/m2
02:18 11.9 °C 10.8 °C 1017.8 hPa Calm   6.4 km/h 93 % 0 mm 0 W/m2
02:23 12 °C 10.9 °C 1017.8 hPa NW 1.6 km/h 8 km/h 93 % 0 mm 0 W/m2
02:28 12.1 °C 11 °C 1017.8 hPa NW 3.2 km/h 14.5 km/h 93 % 0 mm 0 W/m2
02:33 12.2 °C 10.9 °C 1017.8 hPa NNW 6.4 km/h 17.7 km/h 92 % 0 mm 0 W/m2
02:38 12.2 °C 10.9 °C 1017.8 hPa NNW 6.4 km/h 17.7 km/h 92 % 0 mm 0 W/m2
02:43 12.3 °C 10.9 °C 1017.8 hPa NNE 4.8 km/h 12.9 km/h 91 % 0 mm 0 W/m2
02:48 12.3 °C 10.9 °C 1017.8 hPa North 8 km/h 20.9 km/h 91 % 0 mm 0 W/m2
02:53 12.4 °C 10.8 °C 1017.8 hPa North 11.3 km/h 20.9 km/h 90 % 0 mm 0 W/m2
02:58 12.4 °C 10.8 °C 1017.8 hPa North 9.7 km/h 19.3 km/h 90 % 0 mm 0 W/m2
03:03 12.4 °C 10.8 °C 1017.8 hPa NNW 4.8 km/h 16.1 km/h 90 % 0 mm 0 W/m2
03:08 12.5 °C 10.9 °C 1017.5 hPa NNW 4.8 km/h 16.1 km/h 90 % 0 mm 0 W/m2
03:13 12.5 °C 10.9 °C 1017.5 hPa NW 6.4 km/h 11.3 km/h 90 % 0 mm 0 W/m2
03:19 12.5 °C 10.9 °C 1017.5 hPa NW 3.2 km/h 11.3 km/h 90 % 0 mm 0 W/m2
03:23 12.5 °C 10.9 °C 1017.5 hPa Calm   8 km/h 90 % 0 mm 0 W/m2
03:29 12.6 °C 10.8 °C 1017.5 hPa Calm   3.2 km/h 89 % 0 mm 0 W/m2
03:34 12.6 °C 10.8 °C 1017.8 hPa Calm   3.2 km/h 89 % 0 mm 0 W/m2
03:39 12.6 °C 10.8 °C 1017.5 hPa Calm   6.4 km/h 89 % 0 mm 0 W/m2
03:44 12.6 °C 10.8 °C 1017.5 hPa NNW 1.6 km/h 9.7 km/h 89 % 0 mm 0 W/m2
03:49 12.6 °C 10.8 °C 1017.5 hPa NNW 4.8 km/h 16.1 km/h 89 % 0 mm 0 W/m2
03:54 12.5 °C 10.7 °C 1017.5 hPa NNW 8 km/h 16.1 km/h 89 % 0 mm 0 W/m2
03:59 12.5 °C 10.7 °C 1017.5 hPa NNW 6.4 km/h 16.1 km/h 89 % 0 mm 0 W/m2
04:04 12.5 °C 10.7 °C 1017.5 hPa NNW 3.2 km/h 12.9 km/h 89 % 0 mm 0 W/m2
04:09 12.5 °C 10.7 °C 1017.5 hPa NW 3.2 km/h 9.7 km/h 89 % 0 mm 0 W/m2
04:14 12.5 °C 10.7 °C 1017.5 hPa WNW 1.6 km/h 9.7 km/h 89 % 0 mm 0 W/m2
04:19 12.5 °C 10.7 °C 1017.5 hPa WNW 1.6 km/h 6.4 km/h 89 % 0 mm 0 W/m2
04:24 12.5 °C 10.6 °C 1017.5 hPa NW 1.6 km/h 9.7 km/h 88 % 0 mm 0 W/m2
04:29 12.5 °C 10.7 °C 1017.5 hPa NNW 1.6 km/h 9.7 km/h 89 % 0 mm 0 W/m2
04:34 12.5 °C 10.7 °C 1017.5 hPa NW 3.2 km/h 9.7 km/h 89 % 0 mm 0 W/m2
04:39 12.5 °C 10.7 °C 1017.5 hPa NW 3.2 km/h 9.7 km/h 89 % 0 mm 0 W/m2
04:44 12.6 °C 10.7 °C 1017.5 hPa NNW 3.2 km/h 12.9 km/h 88 % 0 mm 0 W/m2
04:49 12.5 °C 10.6 °C 1017.5 hPa NNW 4.8 km/h 12.9 km/h 88 % 0 mm 0 W/m2
04:54 12.6 °C 10.7 °C 1017.5 hPa NNW 3.2 km/h 12.9 km/h 88 % 0 mm 0 W/m2
04:59 12.6 °C 10.7 °C 1017.5 hPa North 1.6 km/h 6.4 km/h 88 % 0 mm 0 W/m2
05:04 12.6 °C 10.7 °C 1017.5 hPa North 1.6 km/h 9.7 km/h 88 % 0 mm 0 W/m2
05:09 12.6 °C 10.7 °C 1017.5 hPa North 3.2 km/h 9.7 km/h 88 % 0 mm 0 W/m2
05:14 12.6 °C 10.7 °C 1017.5 hPa North 3.2 km/h 9.7 km/h 88 % 0 mm 0 W/m2
05:19 12.6 °C 10.8 °C 1017.5 hPa NW 3.2 km/h 8 km/h 89 % 0 mm 5 W/m2
05:24 12.6 °C 10.7 °C 1017.2 hPa WNW 3.2 km/h 8 km/h 88 % 0 mm 5 W/m2
05:29 12.6 °C 10.8 °C 1017.2 hPa West 1.6 km/h 8 km/h 89 % 0 mm 7 W/m2
05:34 12.6 °C 10.8 °C 1017.2 hPa West 1.6 km/h 8 km/h 89 % 0 mm 11 W/m2
05:39 12.6 °C 10.8 °C 1017.2 hPa West 1.6 km/h 8 km/h 89 % 0 mm 14 W/m2
05:44 12.6 °C 10.8 °C 1017.2 hPa West 1.6 km/h 8 km/h 89 % 0 mm 19 W/m2
05:49 12.6 °C 10.8 °C 1017.2 hPa West 1.6 km/h 8 km/h 89 % 0 mm 19 W/m2
05:54 12.6 °C 10.8 °C 1017.2 hPa West 1.6 km/h 8 km/h 89 % 0 mm 16 W/m2
05:59 12.7 °C 10.9 °C 1017.2 hPa Calm   4.8 km/h 89 % 0 mm 12 W/m2
06:04 12.7 °C 10.9 °C 1017.5 hPa Calm   4.8 km/h 89 % 0 mm 14 W/m2
06:09 12.7 °C 10.9 °C 1017.2 hPa West 1.6 km/h 4.8 km/h 89 % 0 mm 16 W/m2
06:14 12.7 °C 10.9 °C 1017.2 hPa West 1.6 km/h 6.4 km/h 89 % 0 mm 26 W/m2
06:19 12.7 °C 10.9 °C 1017.2 hPa West 1.6 km/h 6.4 km/h 89 % 0 mm 40 W/m2
06:24 12.8 °C 11.1 °C 1017.2 hPa Calm   4.8 km/h 89 % 0 mm 44 W/m2
06:29 12.8 °C 10.8 °C 1017.2 hPa West 1.6 km/h 8 km/h 88 % 0 mm 46 W/m2
06:34 12.8 °C 10.8 °C 1017.2 hPa West 3.2 km/h 8 km/h 88 % 0 mm 58 W/m2
06:39 12.9 °C 10.9 °C 1017.2 hPa West 3.2 km/h 6.4 km/h 88 % 0 mm 54 W/m2
06:44 12.9 °C 10.9 °C 1017.2 hPa West 3.2 km/h 8 km/h 88 % 0 mm 42 W/m2
06:49 13 °C 11.1 °C 1017.2 hPa West 3.2 km/h 8 km/h 88 % 0 mm 42 W/m2
06:54 13 °C 11.1 °C 1017.2 hPa West 1.6 km/h 8 km/h 88 % 0 mm 42 W/m2
06:59 13.1 °C 11.2 °C 1017.2 hPa WNW 1.6 km/h 8 km/h 88 % 0 mm 42 W/m2
07:04 13.1 °C 11 °C 1017.2 hPa WNW 3.2 km/h 9.7 km/h 87 % 0 mm 49 W/m2
07:09 13.1 °C 11 °C 1017.2 hPa WNW 1.6 km/h 9.7 km/h 87 % 0 mm 42 W/m2
07:14 13.2 °C 11.1 °C 1017.2 hPa WNW 1.6 km/h 6.4 km/h 87 % 0 mm 42 W/m2
07:19 13.2 °C 11.1 °C 1017.2 hPa WNW 1.6 km/h 9.7 km/h 87 % 0 mm 46 W/m2
07:24 13.2 °C 11.1 °C 1017.2 hPa WNW 3.2 km/h 9.7 km/h 87 % 0 mm 51 W/m2
07:29 13.2 °C 11.1 °C 1017.2 hPa WNW 3.2 km/h 9.7 km/h 87 % 0 mm 60 W/m2
07:34 13.2 °C 11.1 °C 1016.8 hPa WNW 4.8 km/h 9.7 km/h 87 % 0 mm 65 W/m2
07:39 13.2 °C 10.9 °C 1016.8 hPa WNW 4.8 km/h 9.7 km/h 86 % 0 mm 84 W/m2
07:44 13.3 °C 11.2 °C 1016.8 hPa WNW 3.2 km/h 8 km/h 87 % 0 mm 109 W/m2
07:49 13.3 °C 11 °C 1016.8 hPa WNW 3.2 km/h 8 km/h 86 % 0 mm 107 W/m2
07:54 13.4 °C 11.3 °C 1017.2 hPa WNW 3.2 km/h 8 km/h 87 % 0 mm 109 W/m2
07:59 13.5 °C 11.2 °C 1016.8 hPa WNW 3.2 km/h 8 km/h 86 % 0 mm 139 W/m2
08:04 13.6 °C 11.3 °C 1016.8 hPa WNW 3.2 km/h 8 km/h 86 % 0 mm 123 W/m2
08:09 13.7 °C 11.4 °C 1016.8 hPa NW 3.2 km/h 8 km/h 86 % 0 mm 144 W/m2
08:14 13.8 °C 11.3 °C 1017.2 hPa NW 3.2 km/h 9.7 km/h 85 % 0 mm 116 W/m2
08:19 13.9 °C 11.4 °C 1016.8 hPa NW 3.2 km/h 9.7 km/h 85 % 0 mm 113 W/m2
08:24 14 °C 11.5 °C 1017.2 hPa NNW 3.2 km/h 11.3 km/h 85 % 0 mm 111 W/m2
08:29 14.1 °C 11.4 °C 1016.8 hPa NNW 4.8 km/h 12.9 km/h 84 % 0 mm 121 W/m2
08:34 14.1 °C 11.4 °C 1017.2 hPa NW 4.8 km/h 12.9 km/h 84 % 0 mm 116 W/m2
08:40 14.1 °C 11.4 °C 1016.8 hPa NW 6.4 km/h 12.9 km/h 84 % 0 mm 144 W/m2
08:45 14.2 °C 11.6 °C 1016.8 hPa NW 6.4 km/h 12.9 km/h 84 % 0 mm 149 W/m2
08:50 14.2 °C 11.6 °C 1016.8 hPa NW 6.4 km/h 12.9 km/h 84 % 0 mm 142 W/m2
08:55 14.3 °C 11.6 °C 1016.8 hPa NW 4.8 km/h 14.5 km/h 84 % 0 mm 167 W/m2
09:00 14.4 °C 11.6 °C 1016.8 hPa NW 4.8 km/h 14.5 km/h 83 % 0 mm 163 W/m2
09:05 14.5 °C 11.7 °C 1016.8 hPa NW 6.4 km/h 12.9 km/h 83 % 0 mm 171 W/m2
09:10 14.6 °C 11.7 °C 1016.8 hPa NNW 6.4 km/h 14.5 km/h 83 % 0 mm 169 W/m2
09:15 14.6 °C 11.6 °C 1016.8 hPa North 6.4 km/h 14.5 km/h 82 % 0 mm 185 W/m2
09:20 14.6 °C 11.6 °C 1016.8 hPa North 8 km/h 14.5 km/h 82 % 0 mm 229 W/m2
09:25 14.7 °C 11.7 °C 1016.8 hPa North 6.4 km/h 16.1 km/h 82 % 0 mm 209 W/m2
09:30 14.7 °C 11.7 °C 1016.8 hPa North 6.4 km/h 16.1 km/h 82 % 0 mm 246 W/m2
09:35 14.8 °C 11.8 °C 1016.8 hPa North 6.4 km/h 14.5 km/h 82 % 0 mm 243 W/m2
09:40 14.9 °C 11.8 °C 1016.8 hPa North 4.8 km/h 12.9 km/h 82 % 0 mm 211 W/m2
09:45 15 °C 11.8 °C 1016.5 hPa North 6.4 km/h 14.5 km/h 81 % 0 mm 202 W/m2
09:50 15 °C 11.6 °C 1016.5 hPa NE 4.8 km/h 14.5 km/h 80 % 0 mm 229 W/m2
09:55 15.1 °C 11.9 °C 1016.5 hPa NE 4.8 km/h 14.5 km/h 81 % 0 mm 251 W/m2
10:00 15.1 °C 11.7 °C 1016.5 hPa NNE 6.4 km/h 14.5 km/h 80 % 0 mm 227 W/m2
10:05 15.1 °C 11.7 °C 1016.5 hPa North 3.2 km/h 11.3 km/h 80 % 0 mm 260 W/m2
10:10 15.2 °C 11.8 °C 1016.5 hPa NNW 3.2 km/h 9.7 km/h 80 % 0 mm 234 W/m2
10:15 15.3 °C 11.9 °C 1016.5 hPa NNW 4.8 km/h 9.7 km/h 80 % 0 mm 232 W/m2
10:20 15.3 °C 11.7 °C 1016.5 hPa North 4.8 km/h 12.9 km/h 79 % 0 mm 204 W/m2
10:25 15.3 °C 11.7 °C 1016.5 hPa NNE 4.8 km/h 12.9 km/h 79 % 0 mm 206 W/m2
10:30 15.3 °C 11.7 °C 1016.5 hPa NNE 3.2 km/h 11.3 km/h 79 % 0 mm 237 W/m2
10:35 15.4 °C 11.8 °C 1016.5 hPa North 4.8 km/h 11.3 km/h 79 % 0 mm 264 W/m2
10:40 15.6 °C 11.9 °C 1016.5 hPa NNW 3.2 km/h 11.3 km/h 79 % 0 mm 309 W/m2
10:45 15.7 °C 11.9 °C 1016.5 hPa NNW 1.6 km/h 8 km/h 78 % 0 mm 452 W/m2
10:50 15.9 °C 12.3 °C 1016.1 hPa North 1.6 km/h 6.4 km/h 79 % 0 mm 561 W/m2
10:55 16.3 °C 12.1 °C 1016.1 hPa North 3.2 km/h 11.3 km/h 76 % 0 mm 406 W/m2
11:00 16.6 °C 12.3 °C 1016.1 hPa NNW 3.2 km/h 11.3 km/h 76 % 0 mm 357 W/m2
11:05 16.7 °C 12.2 °C 1016.1 hPa NW 4.8 km/h 12.9 km/h 75 % 0 mm 385 W/m2
11:10 16.7 °C 12.2 °C 1016.1 hPa WNW 6.4 km/h 12.9 km/h 75 % 0 mm 410 W/m2
11:15 16.9 °C 12.4 °C 1016.1 hPa NNW 6.4 km/h 11.3 km/h 75 % 0 mm 396 W/m2
11:20 17.1 °C 12.4 °C 1016.1 hPa NNW 6.4 km/h 12.9 km/h 74 % 0 mm 320 W/m2
11:25 17.2 °C 12.3 °C 1016.1 hPa NW 3.2 km/h 12.9 km/h 73 % 0 mm 288 W/m2
11:26 17.2 °C 12.3 °C 1016.1 hPa NW 3.2 km/h 12.9 km/h 73 % 0 mm 294 W/m2
11:31 17.3 °C 12.4 °C 1016.1 hPa Calm   3.2 km/h 73 % 0 mm 371 W/m2
11:36 17.3 °C 12.4 °C 1015.8 hPa Calm   8 km/h 73 % 0 mm 432 W/m2
11:41 17.4 °C 12.3 °C 1015.8 hPa ENE 1.6 km/h 8 km/h 72 % 0 mm 411 W/m2
11:46 17.6 °C 12.5 °C 1015.8 hPa NE 1.6 km/h 8 km/h 72 % 0 mm 318 W/m2
11:51 17.6 °C 12.3 °C 1015.8 hPa ENE 1.6 km/h 8 km/h 71 % 0 mm 325 W/m2
11:56 17.7 °C 12.6 °C 1015.8 hPa ESE 1.6 km/h 6.4 km/h 72 % 0 mm 462 W/m2
12:01 17.7 °C 12.6 °C 1015.8 hPa NE 3.2 km/h 12.9 km/h 72 % 0 mm 594 W/m2
12:06 17.7 °C 12.6 °C 1015.8 hPa NNE 3.2 km/h 12.9 km/h 72 % 0 mm 404 W/m2
12:11 17.8 °C 12.7 °C 1015.8 hPa NNE 1.6 km/h 8 km/h 72 % 0 mm 401 W/m2
12:16 17.9 °C 12.6 °C 1015.8 hPa NNE 1.6 km/h 8 km/h 71 % 0 mm 422 W/m2
12:22 18 °C 12.4 °C 1015.8 hPa NNE 3.2 km/h 9.7 km/h 70 % 0 mm 404 W/m2
12:26 18.1 °C 12.6 °C 1015.8 hPa North 3.2 km/h 9.7 km/h 70 % 0 mm 443 W/m2
12:31 18.3 °C 12.9 °C 1015.5 hPa NNW 1.6 km/h 6.4 km/h 71 % 0 mm 387 W/m2
12:37 18.4 °C 12.8 °C 1015.5 hPa WNW 3.2 km/h 11.3 km/h 70 % 0 mm 448 W/m2
12:42 18.5 °C 12.9 °C 1015.5 hPa WNW 4.8 km/h 12.9 km/h 70 % 0 mm 415 W/m2
12:47 18.6 °C 12.8 °C 1015.5 hPa WNW 6.4 km/h 12.9 km/h 69 % 0 mm 457 W/m2
12:52 18.7 °C 12.9 °C 1015.5 hPa NW 4.8 km/h 11.3 km/h 69 % 0 mm 415 W/m2
12:57 18.5 °C 12.7 °C 1015.5 hPa North 6.4 km/h 12.9 km/h 69 % 0 mm 373 W/m2
13:02 18.4 °C 12.6 °C 1015.5 hPa North 4.8 km/h 12.9 km/h 69 % 0 mm 543 W/m2
13:07 18.6 °C 13 °C 1015.5 hPa NNE 3.2 km/h 12.9 km/h 70 % 0 mm 438 W/m2
13:12 18.7 °C 12.9 °C 1015.5 hPa North 8 km/h 16.1 km/h 69 % 0 mm 394 W/m2
13:17 18.7 °C 12.7 °C 1015.5 hPa North 6.4 km/h 16.1 km/h 68 % 0 mm 408 W/m2
13:22 18.9 °C 13.1 °C 1015.5 hPa NNW 4.8 km/h 12.9 km/h 69 % 0 mm 425 W/m2
13:27 19.1 °C 13.1 °C 1015.5 hPa NNW 4.8 km/h 12.9 km/h 68 % 0 mm 513 W/m2
13:32 19.2 °C 12.9 °C 1015.5 hPa North 3.2 km/h 11.3 km/h 67 % 0 mm 483 W/m2
13:37 19.4 °C 13.3 °C 1015.1 hPa NNW 4.8 km/h 16.1 km/h 68 % 0 mm 360 W/m2
13:42 19.6 °C 13.6 °C 1015.1 hPa NNW 4.8 km/h 16.1 km/h 68 % 0 mm 441 W/m2
13:47 19.6 °C 13.3 °C 1015.1 hPa NW 4.8 km/h 16.1 km/h 67 % 0 mm 652 W/m2
13:52 19.7 °C 13.2 °C 1015.1 hPa NW 4.8 km/h 16.1 km/h 66 % 0 mm 403 W/m2
13:57 19.7 °C 13.2 °C 1015.1 hPa NNW 1.6 km/h 6.4 km/h 66 % 0 mm 374 W/m2
14:02 19.7 °C 13.2 °C 1015.1 hPa Calm   6.4 km/h 66 % 0 mm 461 W/m2
14:07 19.9 °C 13.6 °C 1014.8 hPa WNW 1.6 km/h 11.3 km/h 67 % 0 mm 656 W/m2
14:12 20.2 °C 13.7 °C 1014.8 hPa WNW 3.2 km/h 11.3 km/h 66 % 0 mm 487 W/m2
14:17 20.3 °C 13.5 °C 1014.8 hPa West 3.2 km/h 11.3 km/h 65 % 0 mm 461 W/m2
14:22 20.4 °C 13.8 °C 1014.8 hPa West 1.6 km/h 9.7 km/h 66 % 0 mm 425 W/m2
14:27 20.5 °C 13.7 °C 1014.8 hPa West 1.6 km/h 9.7 km/h 65 % 0 mm 494 W/m2
14:32 20.4 °C 13.6 °C 1014.8 hPa West 1.6 km/h 6.4 km/h 65 % 0 mm 401 W/m2
14:37 20.4 °C 13.8 °C 1014.8 hPa NE 3.2 km/h 11.3 km/h 66 % 0 mm 436 W/m2
14:42 20.3 °C 13.5 °C 1014.4 hPa ENE 4.8 km/h 12.9 km/h 65 % 0 mm 466 W/m2
14:47 20.3 °C 13.7 °C 1014.4 hPa ENE 3.2 km/h 12.9 km/h 66 % 0 mm 965 W/m2
14:52 20.3 °C 13.9 °C 1014.4 hPa North 3.2 km/h 9.7 km/h 67 % 0 mm 990 W/m2
14:57 20.6 °C 14 °C 1014.4 hPa NNW 4.8 km/h 12.9 km/h 66 % 0 mm 396 W/m2
15:02 20.8 °C 14 °C 1014.1 hPa NW 4.8 km/h 12.9 km/h 65 % 0 mm 418 W/m2
15:07 20.9 °C 13.8 °C 1014.1 hPa NW 4.8 km/h 12.9 km/h 64 % 0 mm 817 W/m2
15:12 20.8 °C 13.7 °C 1014.1 hPa WSW 6.4 km/h 14.5 km/h 64 % 0 mm 970 W/m2
15:17 20.8 °C 14.2 °C 1014.1 hPa SW 6.4 km/h 14.5 km/h 66 % 0 mm 835 W/m2
15:22 21.2 °C 14.1 °C 1014.1 hPa SSW 3.2 km/h 8 km/h 64 % 0 mm 687 W/m2
15:27 21.3 °C 13.9 °C 1014.1 hPa SSW 3.2 km/h 8 km/h 63 % 0 mm 369 W/m2
15:32 21.2 °C 13.9 °C 1014.1 hPa NW 3.2 km/h 9.7 km/h 63 % 0 mm 350 W/m2
15:37 21.3 °C 14.2 °C 1014.1 hPa NNW 3.2 km/h 11.3 km/h 64 % 0 mm 264 W/m2
15:43 21.3 °C 14.2 °C 1013.8 hPa NW 3.2 km/h 11.3 km/h 64 % 0 mm 833 W/m2
15:48 21.6 °C 14.3 °C 1013.8 hPa NNW 3.2 km/h 8 km/h 63 % 0 mm 197 W/m2
15:53 21.7 °C 14.3 °C 1013.8 hPa NNW 4.8 km/h 12.9 km/h 63 % 0 mm 744 W/m2
15:54 21.7 °C 14.3 °C 1013.8 hPa NNW 4.8 km/h 12.9 km/h 63 % 0 mm 751 W/m2
15:59 21.8 °C 13.9 °C 1013.8 hPa NNW 4.8 km/h 12.9 km/h 61 % 0 mm 721 W/m2
16:04 21.9 °C 14.1 °C 1013.8 hPa North 3.2 km/h 14.5 km/h 61 % 0 mm 735 W/m2
16:09 21.9 °C 14.1 °C 1013.8 hPa North 4.8 km/h 14.5 km/h 61 % 0 mm 726 W/m2
16:14 21.9 °C 14.1 °C 1013.8 hPa North 4.8 km/h 12.9 km/h 61 % 0 mm 264 W/m2
16:19 21.8 °C 14.2 °C 1013.8 hPa NNW 3.2 km/h 9.7 km/h 62 % 0 mm 255 W/m2
16:24 21.7 °C 14.1 °C 1013.8 hPa NW 3.2 km/h 9.7 km/h 62 % 0 mm 239 W/m2
16:25 21.7 °C 14.1 °C 1013.8 hPa NW 1.6 km/h 9.7 km/h 62 % 0 mm 255 W/m2
16:30 21.7 °C 14.1 °C 1013.8 hPa NW 1.6 km/h 9.7 km/h 62 % 0 mm 417 W/m2
16:35 21.9 °C 14.3 °C 1013.4 hPa North 1.6 km/h 9.7 km/h 62 % 0 mm 698 W/m2
16:40 22 °C 14.4 °C 1013.8 hPa NNE 3.2 km/h 9.7 km/h 62 % 0 mm 302 W/m2
16:45 21.9 °C 14.1 °C 1013.8 hPa NE 3.2 km/h 11.3 km/h 61 % 0 mm 223 W/m2
16:50 21.8 °C 13.9 °C 1013.8 hPa NE 4.8 km/h 11.3 km/h 61 % 0 mm 290 W/m2
16:55 21.7 °C 14.1 °C 1013.8 hPa NE 3.2 km/h 9.7 km/h 62 % 0 mm 357 W/m2
17:00 21.7 °C 14.1 °C 1013.4 hPa NE 4.8 km/h 12.9 km/h 62 % 0 mm 269 W/m2
17:05 21.5 °C 14.2 °C 1013.4 hPa NE 4.8 km/h 12.9 km/h 63 % 0 mm 573 W/m2
17:10 21.6 °C 14 °C 1013.4 hPa ENE 3.2 km/h 11.3 km/h 62 % 0 mm 570 W/m2
17:15 21.6 °C 14 °C 1013.4 hPa East 3.2 km/h 9.7 km/h 62 % 0 mm 230 W/m2
17:20 21.5 °C 14.2 °C 1013.4 hPa ESE 3.2 km/h 9.7 km/h 63 % 0 mm 554 W/m2
17:25 21.5 °C 14.2 °C 1013.1 hPa ENE 4.8 km/h 11.3 km/h 63 % 0 mm 450 W/m2
17:30 21.6 °C 14.5 °C 1013.1 hPa ENE 6.4 km/h 11.3 km/h 64 % 0 mm 552 W/m2
17:35 21.6 °C 14.3 °C 1013.1 hPa NE 8 km/h 12.9 km/h 63 % 0 mm 153 W/m2
17:40 21.4 °C 14.3 °C 1013.1 hPa NE 6.4 km/h 12.9 km/h 64 % 0 mm 199 W/m2
17:45 21.3 °C 14.2 °C 1013.1 hPa NE 4.8 km/h 9.7 km/h 64 % 0 mm 255 W/m2
17:50 21.4 °C 14.3 °C 1012.8 hPa NE 4.8 km/h 9.7 km/h 64 % 0 mm 380 W/m2
17:55 21.3 °C 14.2 °C 1012.8 hPa NE 3.2 km/h 9.7 km/h 64 % 0 mm 294 W/m2
18:00 21.5 °C 14.4 °C 1012.8 hPa NE 1.6 km/h 9.7 km/h 64 % 0 mm 306 W/m2
18:05 21.5 °C 14.2 °C 1012.8 hPa NE 3.2 km/h 9.7 km/h 63 % 0 mm 376 W/m2
18:10 21.4 °C 14.3 °C 1012.8 hPa NE 3.2 km/h 9.7 km/h 64 % 0 mm 332 W/m2
18:15 21.4 °C 14.1 °C 1012.8 hPa NE 3.2 km/h 9.7 km/h 63 % 0 mm 149 W/m2
18:20 21.4 °C 14.3 °C 1012.8 hPa NE 3.2 km/h 9.7 km/h 64 % 0 mm 137 W/m2
18:25 21.4 °C 14.1 °C 1012.8 hPa NE 1.6 km/h 8 km/h 63 % 0 mm 116 W/m2
18:30 21.3 °C 14.2 °C 1012.8 hPa Calm   6.4 km/h 64 % 0 mm 95 W/m2
18:35 21.2 °C 14.3 °C 1012.8 hPa Calm   6.4 km/h 65 % 0 mm 121 W/m2
18:40 21 °C 14.2 °C 1012.8 hPa NE 1.6 km/h 6.4 km/h 65 % 0 mm 183 W/m2
18:45 21 °C 14.2 °C 1012.8 hPa Calm   6.4 km/h 65 % 0 mm 134 W/m2
18:50 21.1 °C 14.3 °C 1012.4 hPa Calm   3.2 km/h 65 % 0 mm 100 W/m2
18:55 21.1 °C 14.5 °C 1012.4 hPa NE 1.6 km/h 4.8 km/h 66 % 0 mm 116 W/m2
19:00 21.1 °C 14.5 °C 1012.4 hPa NE 1.6 km/h 8 km/h 66 % 0 mm 218 W/m2
19:05 21.1 °C 14.3 °C 1012.4 hPa NE 3.2 km/h 8 km/h 65 % 0 mm 162 W/m2
19:10 21 °C 14.2 °C 1012.4 hPa NE 1.6 km/h 8 km/h 65 % 0 mm 116 W/m2
19:15 21 °C 14.4 °C 1012.4 hPa ENE 1.6 km/h 8 km/h 66 % 0 mm 91 W/m2
19:20 20.9 °C 14.1 °C 1012.4 hPa Calm   3.2 km/h 65 % 0 mm 67 W/m2
19:25 20.8 °C 14.2 °C 1012.4 hPa ENE 1.6 km/h 4.8 km/h 66 % 0 mm 54 W/m2
19:30 20.7 °C 13.9 °C 1012.1 hPa East 1.6 km/h 9.7 km/h 65 % 0 mm 42 W/m2
19:36 20.6 °C 14 °C 1012.1 hPa ESE 3.2 km/h 9.7 km/h 66 % 0 mm 44 W/m2
19:37 20.6 °C 14 °C 1012.1 hPa ESE 3.2 km/h 9.7 km/h 66 % 0 mm 44 W/m2
19:42 20.5 °C 13.9 °C 1012.1 hPa ESE 3.2 km/h 9.7 km/h 66 % 0 mm 47 W/m2
19:47 20.4 °C 13.8 °C 1012.1 hPa ESE 1.6 km/h 9.7 km/h 66 % 0 mm 56 W/m2
19:49 20.3 °C 13.5 °C 1012.1 hPa ESE 3.2 km/h 9.7 km/h 65 % 0 mm 63 W/m2
19:54 20.3 °C 13.9 °C 1012.1 hPa ESE 3.2 km/h 8 km/h 67 % 0 mm 51 W/m2
19:59 20.3 °C 13.9 °C 1012.1 hPa ESE 1.6 km/h 6.4 km/h 67 % 0 mm 53 W/m2
20:04 20.2 °C 13.9 °C 1011.7 hPa ESE 3.2 km/h 8 km/h 67 % 0 mm 37 W/m2
20:09 20.1 °C 13.8 °C 1012.1 hPa East 1.6 km/h 8 km/h 67 % 0 mm 44 W/m2
20:14 20.1 °C 14.2 °C 1011.7 hPa Calm   6.4 km/h 69 % 0 mm 49 W/m2
20:19 20.1 °C 14.2 °C 1011.7 hPa ESE 1.6 km/h 6.4 km/h 69 % 0 mm 51 W/m2
20:24 20 °C 13.7 °C 1011.7 hPa ESE 4.8 km/h 9.7 km/h 67 % 0 mm 35 W/m2
20:29 19.9 °C 13.6 °C 1011.7 hPa East 4.8 km/h 9.7 km/h 67 % 0 mm 25 W/m2
20:33 19.8 °C 13.7 °C 1011.7 hPa ESE 4.8 km/h 11.3 km/h 68 % 0 mm 18 W/m2
20:38 19.7 °C 13.6 °C 1011.7 hPa ESE 3.2 km/h 11.3 km/h 68 % 0 mm 18 W/m2
20:43 19.7 °C 13.6 °C 1011.7 hPa ESE 4.8 km/h 16.1 km/h 68 % 0 mm 14 W/m2
20:48 19.6 °C 13.3 °C 1011.7 hPa SE 6.4 km/h 16.1 km/h 67 % 0 mm 9 W/m2
20:53 19.5 °C 13.2 °C 1011.7 hPa SE 8 km/h 12.9 km/h 67 % 0 mm 7 W/m2
20:58 19.4 °C 13.1 °C 1011.7 hPa SE 6.4 km/h 16.1 km/h 67 % 0 mm 5 W/m2
21:03 19.3 °C 13 °C 1012.1 hPa SE 6.4 km/h 16.1 km/h 67 % 0 mm 0 W/m2
21:08 19.2 °C 12.9 °C 1012.1 hPa SE 8 km/h 12.9 km/h 67 % 0 mm 0 W/m2
21:13 19.1 °C 13.5 °C 1012.1 hPa ESE 8 km/h 17.7 km/h 70 % 0 mm 0 W/m2
21:18 18.8 °C 13.7 °C 1012.1 hPa ESE 9.7 km/h 17.7 km/h 72 % 0 mm 0 W/m2
21:23 18.5 °C 13.8 °C 1012.1 hPa ESE 8 km/h 17.7 km/h 74 % 0 mm 0 W/m2
21:28 18.3 °C 13.8 °C 1012.1 hPa ESE 6.4 km/h 14.5 km/h 75 % 0 mm 0 W/m2
21:33 18.1 °C 14 °C 1012.1 hPa ESE 8 km/h 14.5 km/h 77 % 0 mm 0 W/m2
21:38 17.8 °C 13.9 °C 1012.1 hPa ESE 9.7 km/h 17.7 km/h 78 % 0 mm 0 W/m2
21:43 17.7 °C 14 °C 1012.1 hPa ESE 11.3 km/h 17.7 km/h 79 % 0 mm 0 W/m2
21:48 17.5 °C 13.8 °C 1012.1 hPa ESE 9.7 km/h 17.7 km/h 79 % 0 mm 0 W/m2
21:53 17.3 °C 13.8 °C 1012.1 hPa ESE 11.3 km/h 16.1 km/h 80 % 0 mm 0 W/m2
21:58 17.1 °C 13.8 °C 1012.1 hPa ESE 11.3 km/h 17.7 km/h 81 % 0 mm 0 W/m2
22:03 17 °C 13.9 °C 1012.1 hPa ESE 11.3 km/h 17.7 km/h 82 % 0 mm 0 W/m2
22:08 16.9 °C 13.8 °C 1012.1 hPa ESE 9.7 km/h 17.7 km/h 82 % 0 mm 0 W/m2
22:13 16.8 °C 13.7 °C 1012.1 hPa ESE 9.7 km/h 17.7 km/h 82 % 0 mm 0 W/m2
22:18 16.7 °C 13.8 °C 1012.1 hPa ESE 8 km/h 14.5 km/h 83 % 0 mm 0 W/m2
22:23 16.7 °C 13.8 °C 1012.1 hPa ESE 6.4 km/h 14.5 km/h 83 % 0 mm 0 W/m2
22:28 16.6 °C 13.7 °C 1012.1 hPa ESE 8 km/h 16.1 km/h 83 % 0 mm 0 W/m2
22:33 16.4 °C 13.7 °C 1012.1 hPa ESE 9.7 km/h 16.1 km/h 84 % 0 mm 0 W/m2
22:38 16.3 °C 13.6 °C 1012.1 hPa ESE 9.7 km/h 16.1 km/h 84 % 0 mm 0 W/m2
22:43 16.2 °C 13.7 °C 1012.1 hPa ESE 8 km/h 14.5 km/h 85 % 0 mm 0 W/m2
22:48 16 °C 13.5 °C 1011.7 hPa ESE 8 km/h 12.9 km/h 85 % 0 mm 0 W/m2
22:53 15.9 °C 13.6 °C 1011.7 hPa ESE 6.4 km/h 12.9 km/h 86 % 0 mm 0 W/m2
22:58 15.8 °C 13.4 °C 1011.7 hPa East 4.8 km/h 9.7 km/h 86 % 0 mm 0 W/m2
23:04 15.7 °C 13.6 °C 1011.7 hPa East 3.2 km/h 9.7 km/h 87 % 0 mm 0 W/m2
23:09 15.6 °C 13.4 °C 1012.1 hPa East 3.2 km/h 8 km/h 87 % 0 mm 0 W/m2
23:14 15.6 °C 13.4 °C 1011.7 hPa ESE 4.8 km/h 9.7 km/h 87 % 0 mm 0 W/m2
23:19 15.5 °C 13.3 °C 1011.7 hPa ESE 4.8 km/h 11.3 km/h 87 % 0 mm 0 W/m2
23:24 15.4 °C 13.4 °C 1011.7 hPa SE 6.4 km/h 12.9 km/h 88 % 0 mm 0 W/m2
23:29 15.4 °C 13.4 °C 1011.7 hPa SE 6.4 km/h 12.9 km/h 88 % 0 mm 0 W/m2
23:34 15.3 °C 13.3 °C 1011.7 hPa SSE 4.8 km/h 12.9 km/h 88 % 0 mm 0 W/m2
23:39 15.3 °C 13.3 °C 1011.7 hPa SSE 4.8 km/h 14.5 km/h 88 % 0 mm 0 W/m2
23:44 15.2 °C 13.2 °C 1011.4 hPa SE 8 km/h 17.7 km/h 88 % 0 mm 0 W/m2
23:49 15.1 °C 13.1 °C 1011.4 hPa SE 8 km/h 17.7 km/h 88 % 0 mm 0 W/m2
23:54 15 °C 13.2 °C 1011.4 hPa SE 8 km/h 14.5 km/h 89 % 0 mm 0 W/m2
23:59 14.9 °C 13.1 °C 1011.4 hPa SE 8 km/h 14.5 km/h 89 % 0 mm 0 W/m2
Delerius-Weather
Compliments of Weather Underground - 2.25 mb

Data updates at regular intervals.